SVA1841 OENG-OEJN
Flight info
| Callsign | SVA1841 |
|---|---|
| Flight time | 1h 13m |
| Altitude | 38000 |
| Route | KAM DCT QUN DCT JDW |
| Aircraft | A320/M-SDE3FGHIRWY/LB1 |
Departure
| Time | 2026-05-05 03:53 |
|---|---|
| Airport | Najran Domestic Airport (OENG) |
Arrival
| Time | 2026-05-05 05:07 |
|---|---|
| Airport | King Abdulaziz International Airport (OEJN) |
| Time | Latitude | Longitude | Altitude | Speed | Heading |
|---|---|---|---|---|---|
| 2026-05-05 03:09 | 17.61625 | 44.42020 | 3943 ft | 0 kts | 331° |
| 2026-05-05 03:43 | 17.61616 | 44.42025 | 3970 ft | 3 kts | 333° |
| 2026-05-05 03:44 | 17.61597 | 44.42034 | 3970 ft | 3 kts | 342° |
| 2026-05-05 03:44 | 17.61578 | 44.42039 | 3968 ft | 3 kts | 354° |
| 2026-05-05 03:44 | 17.61558 | 44.42040 | 3969 ft | 2 kts | 10° |
| 2026-05-05 03:44 | 17.61549 | 44.42038 | 3970 ft | 1 kts | 13° |
| 2026-05-05 03:45 | 17.61548 | 44.42037 | 3970 ft | 0 kts | 13° |
| 2026-05-05 03:48 | 17.61552 | 44.42038 | 3970 ft | 2 kts | 13° |
| 2026-05-05 03:48 | 17.61563 | 44.42050 | 3969 ft | 1 kts | 88° |
| 2026-05-05 03:48 | 17.61558 | 44.42058 | 3970 ft | 3 kts | 114° |
| 2026-05-05 03:48 | 17.61561 | 44.42089 | 3970 ft | 5 kts | 43° |
| 2026-05-05 03:49 | 17.61585 | 44.42130 | 3969 ft | 9 kts | 65° |
| 2026-05-05 03:49 | 17.61622 | 44.42199 | 3966 ft | 12 kts | 60° |
| 2026-05-05 03:49 | 17.61615 | 44.42268 | 3963 ft | 10 kts | 141° |
| 2026-05-05 03:49 | 17.61608 | 44.42331 | 3967 ft | 10 kts | 53° |
| 2026-05-05 03:50 | 17.61642 | 44.42386 | 3966 ft | 8 kts | 65° |
| 2026-05-05 03:50 | 17.61669 | 44.42435 | 3966 ft | 7 kts | 60° |
| 2026-05-05 03:50 | 17.61710 | 44.42509 | 3963 ft | 21 kts | 60° |
| 2026-05-05 03:50 | 17.61789 | 44.42655 | 3963 ft | 24 kts | 60° |
| 2026-05-05 03:51 | 17.61873 | 44.42807 | 3961 ft | 19 kts | 57° |
| 2026-05-05 03:51 | 17.61940 | 44.42932 | 3959 ft | 20 kts | 69° |
| 2026-05-05 03:51 | 17.61924 | 44.43036 | 3958 ft | 14 kts | 107° |
| 2026-05-05 03:51 | 17.61865 | 44.43114 | 3958 ft | 14 kts | 163° |
| 2026-05-05 03:52 | 17.61786 | 44.43072 | 3960 ft | 13 kts | 241° |
| 2026-05-05 03:52 | 17.61754 | 44.43010 | 3961 ft | 9 kts | 237° |
| 2026-05-05 03:52 | 17.61670 | 44.42856 | 3963 ft | 55 kts | 240° |
| 2026-05-05 03:52 | 17.61368 | 44.42319 | 3965 ft | 113 kts | 245° |
| 2026-05-05 03:53 | 17.60898 | 44.41464 | 3981 ft | 156 kts | 237° |
| 2026-05-05 03:53 | 17.60288 | 44.40429 | 4259 ft | 171 kts | 238° |
| 2026-05-05 03:53 | 17.59683 | 44.39348 | 4841 ft | 172 kts | 240° |
| 2026-05-05 03:53 | 17.59094 | 44.38280 | 5386 ft | 167 kts | 242° |
| 2026-05-05 03:54 | 17.58483 | 44.37189 | 5653 ft | 182 kts | 242° |
| 2026-05-05 03:54 | 17.57620 | 44.36172 | 5953 ft | 195 kts | 209° |
| 2026-05-05 03:54 | 17.56280 | 44.35924 | 6318 ft | 203 kts | 167° |
| 2026-05-05 03:54 | 17.55084 | 44.36680 | 6635 ft | 206 kts | 122° |
| 2026-05-05 03:55 | 17.54675 | 44.38077 | 6991 ft | 204 kts | 82° |
| 2026-05-05 03:55 | 17.55234 | 44.39424 | 7304 ft | 208 kts | 43° |
| 2026-05-05 03:55 | 17.56510 | 44.40120 | 7699 ft | 212 kts | 18° |
| 2026-05-05 03:55 | 17.57902 | 44.40627 | 8187 ft | 215 kts | 19° |
| 2026-05-05 03:56 | 17.59321 | 44.41112 | 8757 ft | 214 kts | 19° |
| 2026-05-05 03:56 | 17.60675 | 44.41761 | 9196 ft | 217 kts | 40° |
| 2026-05-05 03:56 | 17.61612 | 44.42988 | 9647 ft | 219 kts | 60° |
| 2026-05-05 03:56 | 17.62444 | 44.44385 | 9919 ft | 236 kts | 58° |
| 2026-05-05 03:57 | 17.63391 | 44.45875 | 10173 ft | 254 kts | 52° |
| 2026-05-05 03:57 | 17.64683 | 44.47225 | 10503 ft | 271 kts | 38° |
| 2026-05-05 03:57 | 17.66381 | 44.48208 | 10844 ft | 289 kts | 21° |
| 2026-05-05 03:57 | 17.68405 | 44.48643 | 11194 ft | 306 kts | 3° |
| 2026-05-05 03:58 | 17.70572 | 44.48396 | 11527 ft | 323 kts | 345° |
| 2026-05-05 03:58 | 17.72654 | 44.47379 | 11863 ft | 339 kts | 324° |
| 2026-05-05 03:58 | 17.74330 | 44.45580 | 12175 ft | 354 kts | 302° |
| 2026-05-05 03:58 | 17.75341 | 44.43199 | 12604 ft | 362 kts | 289° |
| 2026-05-05 03:59 | 17.76206 | 44.40693 | 13200 ft | 367 kts | 289° |
| 2026-05-05 03:59 | 17.77074 | 44.38163 | 13875 ft | 369 kts | 289° |
| 2026-05-05 03:59 | 17.77934 | 44.35653 | 14461 ft | 372 kts | 289° |
| 2026-05-05 03:59 | 17.78818 | 44.33087 | 15068 ft | 374 kts | 289° |
| 2026-05-05 04:00 | 17.79709 | 44.30512 | 15668 ft | 376 kts | 289° |
| 2026-05-05 04:00 | 17.80606 | 44.27925 | 16265 ft | 378 kts | 289° |
| 2026-05-05 04:00 | 17.81511 | 44.25320 | 16873 ft | 380 kts | 289° |
| 2026-05-05 04:00 | 17.82420 | 44.22707 | 17490 ft | 382 kts | 289° |
| 2026-05-05 04:01 | 17.83334 | 44.20078 | 18112 ft | 384 kts | 289° |
| 2026-05-05 04:01 | 17.84250 | 44.17437 | 18678 ft | 386 kts | 289° |
| 2026-05-05 04:01 | 17.85168 | 44.14790 | 19188 ft | 387 kts | 289° |
| 2026-05-05 04:01 | 17.86090 | 44.12122 | 19692 ft | 390 kts | 289° |
| 2026-05-05 04:02 | 17.87020 | 44.09436 | 20204 ft | 392 kts | 289° |
| 2026-05-05 04:02 | 17.87941 | 44.06772 | 20694 ft | 394 kts | 289° |
| 2026-05-05 04:02 | 17.88879 | 44.04049 | 21195 ft | 397 kts | 289° |
| 2026-05-05 04:02 | 17.89819 | 44.01315 | 21699 ft | 399 kts | 289° |
| 2026-05-05 04:03 | 17.90750 | 43.98605 | 22194 ft | 401 kts | 289° |
| 2026-05-05 04:03 | 17.91702 | 43.95835 | 22684 ft | 403 kts | 289° |
| 2026-05-05 04:03 | 17.92658 | 43.93063 | 23161 ft | 405 kts | 289° |
| 2026-05-05 04:03 | 17.93621 | 43.90279 | 23609 ft | 407 kts | 289° |
| 2026-05-05 04:04 | 17.94587 | 43.87477 | 23998 ft | 409 kts | 289° |
| 2026-05-05 04:04 | 17.95554 | 43.84661 | 24357 ft | 411 kts | 289° |
| 2026-05-05 04:04 | 17.96527 | 43.81824 | 24713 ft | 413 kts | 289° |
| 2026-05-05 04:04 | 17.97506 | 43.78974 | 25053 ft | 415 kts | 288° |
| 2026-05-05 04:05 | 17.98486 | 43.76120 | 25399 ft | 417 kts | 288° |
| 2026-05-05 04:05 | 17.99472 | 43.73247 | 25723 ft | 419 kts | 288° |
| 2026-05-05 04:05 | 18.00465 | 43.70359 | 26043 ft | 421 kts | 288° |
| 2026-05-05 04:05 | 18.01463 | 43.67459 | 26370 ft | 423 kts | 288° |
| 2026-05-05 04:06 | 18.02462 | 43.64546 | 26675 ft | 425 kts | 288° |
| 2026-05-05 04:06 | 18.03463 | 43.61618 | 26982 ft | 427 kts | 288° |
| 2026-05-05 04:06 | 18.04469 | 43.58675 | 27275 ft | 429 kts | 288° |
| 2026-05-05 04:06 | 18.05480 | 43.55719 | 27554 ft | 431 kts | 288° |
| 2026-05-05 04:07 | 18.06493 | 43.52759 | 27862 ft | 432 kts | 288° |
| 2026-05-05 04:07 | 18.07515 | 43.49774 | 28145 ft | 434 kts | 288° |
| 2026-05-05 04:07 | 18.08537 | 43.46783 | 28425 ft | 436 kts | 288° |
| 2026-05-05 04:07 | 18.09551 | 43.43815 | 28700 ft | 437 kts | 288° |
| 2026-05-05 04:08 | 18.10578 | 43.40797 | 28954 ft | 439 kts | 288° |
| 2026-05-05 04:08 | 18.11607 | 43.37764 | 29221 ft | 441 kts | 288° |
| 2026-05-05 04:08 | 18.12638 | 43.34732 | 29482 ft | 442 kts | 288° |
| 2026-05-05 04:08 | 18.13685 | 43.31677 | 29722 ft | 444 kts | 288° |
| 2026-05-05 04:09 | 18.14736 | 43.28616 | 29973 ft | 445 kts | 288° |
| 2026-05-05 04:09 | 18.15788 | 43.25547 | 30220 ft | 447 kts | 287° |
| 2026-05-05 04:09 | 18.16839 | 43.22465 | 30426 ft | 448 kts | 287° |
| 2026-05-05 04:09 | 18.17887 | 43.19376 | 30618 ft | 449 kts | 287° |
| 2026-05-05 04:10 | 18.18935 | 43.16269 | 30795 ft | 451 kts | 287° |
| 2026-05-05 04:10 | 18.19983 | 43.13161 | 30969 ft | 452 kts | 287° |
| 2026-05-05 04:10 | 18.21023 | 43.10081 | 31137 ft | 453 kts | 287° |
| 2026-05-05 04:10 | 18.22096 | 43.06917 | 31314 ft | 454 kts | 287° |
| 2026-05-05 04:11 | 18.23156 | 43.03788 | 31486 ft | 455 kts | 287° |
| 2026-05-05 04:11 | 18.24217 | 43.00659 | 31711 ft | 454 kts | 287° |
| 2026-05-05 04:11 | 18.25263 | 42.97573 | 31954 ft | 453 kts | 287° |
| 2026-05-05 04:11 | 18.26333 | 42.94416 | 32194 ft | 452 kts | 287° |
| 2026-05-05 04:12 | 18.27372 | 42.91345 | 32423 ft | 451 kts | 287° |
| 2026-05-05 04:12 | 18.28425 | 42.88229 | 32653 ft | 451 kts | 287° |
| 2026-05-05 04:12 | 18.29473 | 42.85125 | 32895 ft | 450 kts | 288° |
| 2026-05-05 04:12 | 18.30574 | 42.82042 | 33140 ft | 450 kts | 292° |
| 2026-05-05 04:13 | 18.32066 | 42.79151 | 33391 ft | 452 kts | 301° |
| 2026-05-05 04:13 | 18.33789 | 42.76387 | 33628 ft | 451 kts | 301° |
| 2026-05-05 04:13 | 18.35505 | 42.73624 | 33857 ft | 451 kts | 301° |
| 2026-05-05 04:13 | 18.36667 | 42.71749 | 34022 ft | 450 kts | 301° |
| 2026-05-05 04:14 | 18.38933 | 42.68089 | 34349 ft | 450 kts | 301° |
| 2026-05-05 04:14 | 18.40061 | 42.66265 | 34466 ft | 449 kts | 301° |
| 2026-05-05 04:14 | 18.41765 | 42.63507 | 34683 ft | 449 kts | 300° |
| 2026-05-05 04:14 | 18.43464 | 42.60753 | 34880 ft | 448 kts | 300° |
| 2026-05-05 04:15 | 18.45160 | 42.58000 | 35073 ft | 448 kts | 300° |
| 2026-05-05 04:15 | 18.46853 | 42.55255 | 35254 ft | 447 kts | 300° |
| 2026-05-05 04:15 | 18.48551 | 42.52501 | 35439 ft | 447 kts | 300° |
| 2026-05-05 04:15 | 18.50249 | 42.49748 | 35614 ft | 446 kts | 300° |
| 2026-05-05 04:16 | 18.51938 | 42.47007 | 35774 ft | 446 kts | 300° |
| 2026-05-05 04:16 | 18.53623 | 42.44268 | 35930 ft | 445 kts | 300° |
| 2026-05-05 04:16 | 18.55309 | 42.41530 | 36092 ft | 445 kts | 300° |
| 2026-05-05 04:16 | 18.56991 | 42.38797 | 36209 ft | 444 kts | 300° |
| 2026-05-05 04:17 | 18.60322 | 42.33390 | 36219 ft | 442 kts | 300° |
| 2026-05-05 04:17 | 18.63666 | 42.27959 | 36199 ft | 441 kts | 300° |
| 2026-05-05 04:18 | 18.66993 | 42.22533 | 36177 ft | 440 kts | 300° |
| 2026-05-05 04:18 | 18.70319 | 42.17102 | 36153 ft | 440 kts | 300° |
| 2026-05-05 04:19 | 18.73650 | 42.11676 | 36135 ft | 440 kts | 300° |
| 2026-05-05 04:19 | 18.76978 | 42.06255 | 36113 ft | 440 kts | 300° |
| 2026-05-05 04:20 | 18.80298 | 42.00832 | 36088 ft | 440 kts | 300° |
| 2026-05-05 04:20 | 18.83608 | 41.95416 | 36069 ft | 439 kts | 300° |
| 2026-05-05 04:21 | 18.86896 | 41.90032 | 36042 ft | 439 kts | 300° |
| 2026-05-05 04:21 | 18.90205 | 41.84612 | 36020 ft | 439 kts | 300° |
| 2026-05-05 04:22 | 18.93512 | 41.79194 | 36003 ft | 439 kts | 300° |
| 2026-05-05 04:22 | 18.96813 | 41.73781 | 35985 ft | 438 kts | 300° |
| 2026-05-05 04:23 | 19.00115 | 41.68361 | 35969 ft | 438 kts | 300° |
| 2026-05-05 04:23 | 19.03408 | 41.62945 | 35950 ft | 438 kts | 300° |
| 2026-05-05 04:24 | 19.06701 | 41.57525 | 35945 ft | 438 kts | 300° |
| 2026-05-05 04:25 | 19.11638 | 41.49400 | 35925 ft | 438 kts | 300° |
| 2026-05-05 04:25 | 19.14923 | 41.43982 | 35918 ft | 438 kts | 300° |
| 2026-05-05 04:26 | 19.18214 | 41.38559 | 35915 ft | 438 kts | 300° |
| 2026-05-05 04:26 | 19.21477 | 41.33166 | 35918 ft | 438 kts | 300° |
| 2026-05-05 04:27 | 19.24754 | 41.27741 | 35922 ft | 437 kts | 300° |
| 2026-05-05 04:27 | 19.28028 | 41.22321 | 35921 ft | 437 kts | 300° |
| 2026-05-05 04:28 | 19.31304 | 41.16904 | 35928 ft | 437 kts | 299° |
| 2026-05-05 04:28 | 19.34579 | 41.11484 | 35922 ft | 436 kts | 299° |
| 2026-05-05 04:29 | 19.38120 | 41.06258 | 35912 ft | 441 kts | 310° |
| 2026-05-05 04:29 | 19.42438 | 41.01630 | 35910 ft | 442 kts | 311° |
| 2026-05-05 04:30 | 19.46745 | 40.96996 | 35921 ft | 441 kts | 311° |
| 2026-05-05 04:30 | 19.51044 | 40.92349 | 35920 ft | 441 kts | 310° |
| 2026-05-05 04:31 | 19.55366 | 40.87683 | 35770 ft | 445 kts | 310° |
| 2026-05-05 04:31 | 19.57537 | 40.85345 | 35535 ft | 445 kts | 310° |
| 2026-05-05 04:31 | 19.59707 | 40.83008 | 35303 ft | 444 kts | 310° |
| 2026-05-05 04:31 | 19.61872 | 40.80673 | 35069 ft | 444 kts | 310° |
| 2026-05-05 04:32 | 19.64040 | 40.78332 | 34840 ft | 444 kts | 310° |
| 2026-05-05 04:32 | 19.66202 | 40.75993 | 34613 ft | 443 kts | 310° |
| 2026-05-05 04:32 | 19.68329 | 40.73686 | 34390 ft | 443 kts | 310° |
| 2026-05-05 04:32 | 19.70488 | 40.71342 | 34163 ft | 443 kts | 310° |
| 2026-05-05 04:33 | 19.72645 | 40.69008 | 33940 ft | 443 kts | 310° |
| 2026-05-05 04:33 | 19.74806 | 40.66673 | 33687 ft | 443 kts | 310° |
| 2026-05-05 04:33 | 19.76964 | 40.64345 | 33435 ft | 442 kts | 310° |
| 2026-05-05 04:33 | 19.79119 | 40.62017 | 33182 ft | 440 kts | 310° |
| 2026-05-05 04:34 | 19.81251 | 40.59707 | 32928 ft | 438 kts | 310° |
| 2026-05-05 04:34 | 19.83382 | 40.57394 | 32687 ft | 436 kts | 310° |
| 2026-05-05 04:34 | 19.85500 | 40.55094 | 32440 ft | 434 kts | 310° |
| 2026-05-05 04:34 | 19.87610 | 40.52801 | 32195 ft | 432 kts | 310° |
| 2026-05-05 04:35 | 19.89708 | 40.50523 | 31954 ft | 430 kts | 310° |
| 2026-05-05 04:35 | 19.91797 | 40.48254 | 31717 ft | 428 kts | 310° |
| 2026-05-05 04:35 | 19.93877 | 40.45993 | 31479 ft | 427 kts | 310° |
| 2026-05-05 04:35 | 19.95946 | 40.43743 | 31246 ft | 425 kts | 310° |
| 2026-05-05 04:36 | 19.98007 | 40.41500 | 31013 ft | 423 kts | 309° |
| 2026-05-05 04:36 | 20.00059 | 40.39265 | 30783 ft | 418 kts | 309° |
| 2026-05-05 04:36 | 20.02074 | 40.37078 | 30557 ft | 407 kts | 309° |
| 2026-05-05 04:36 | 20.03998 | 40.34995 | 30411 ft | 393 kts | 309° |
| 2026-05-05 04:37 | 20.05860 | 40.32984 | 30108 ft | 376 kts | 309° |
| 2026-05-05 04:37 | 20.07701 | 40.30982 | 29418 ft | 379 kts | 309° |
| 2026-05-05 04:37 | 20.09531 | 40.28976 | 28886 ft | 377 kts | 309° |
| 2026-05-05 04:37 | 20.11350 | 40.26977 | 28394 ft | 374 kts | 309° |
| 2026-05-05 04:38 | 20.13155 | 40.25001 | 27915 ft | 371 kts | 309° |
| 2026-05-05 04:38 | 20.14950 | 40.23039 | 27444 ft | 369 kts | 310° |
| 2026-05-05 04:38 | 20.16734 | 40.21092 | 26969 ft | 366 kts | 310° |
| 2026-05-05 04:38 | 20.18504 | 40.19160 | 26499 ft | 364 kts | 310° |
| 2026-05-05 04:39 | 20.20266 | 40.17236 | 26036 ft | 361 kts | 310° |
| 2026-05-05 04:39 | 20.22013 | 40.15325 | 25586 ft | 359 kts | 310° |
| 2026-05-05 04:39 | 20.23751 | 40.13424 | 25136 ft | 357 kts | 311° |
| 2026-05-05 04:39 | 20.25479 | 40.11532 | 24687 ft | 355 kts | 311° |
| 2026-05-05 04:40 | 20.27198 | 40.09653 | 24247 ft | 353 kts | 311° |
| 2026-05-05 04:40 | 20.28908 | 40.07787 | 23805 ft | 351 kts | 311° |
| 2026-05-05 04:40 | 20.30611 | 40.05929 | 23361 ft | 349 kts | 312° |
| 2026-05-05 04:40 | 20.32299 | 40.04084 | 22849 ft | 347 kts | 311° |
| 2026-05-05 04:41 | 20.33963 | 40.02261 | 22359 ft | 346 kts | 311° |
| 2026-05-05 04:41 | 20.35636 | 40.00425 | 21869 ft | 345 kts | 311° |
| 2026-05-05 04:41 | 20.37304 | 39.98592 | 21412 ft | 343 kts | 311° |
| 2026-05-05 04:41 | 20.38939 | 39.96798 | 21266 ft | 330 kts | 311° |
| 2026-05-05 04:42 | 20.40507 | 39.95081 | 20873 ft | 318 kts | 311° |
| 2026-05-05 04:42 | 20.42050 | 39.93390 | 20416 ft | 318 kts | 311° |
| 2026-05-05 04:42 | 20.43585 | 39.91704 | 20042 ft | 316 kts | 311° |
| 2026-05-05 04:42 | 20.45117 | 39.90021 | 19655 ft | 316 kts | 311° |
| 2026-05-05 04:43 | 20.46644 | 39.88341 | 19261 ft | 315 kts | 311° |
| 2026-05-05 04:43 | 20.48170 | 39.86661 | 18886 ft | 315 kts | 311° |
| 2026-05-05 04:43 | 20.49693 | 39.84987 | 18597 ft | 310 kts | 311° |
| 2026-05-05 04:43 | 20.51177 | 39.83360 | 18178 ft | 305 kts | 311° |
| 2026-05-05 04:44 | 20.52657 | 39.81736 | 17805 ft | 304 kts | 311° |
| 2026-05-05 04:44 | 20.54122 | 39.80126 | 17472 ft | 301 kts | 311° |
| 2026-05-05 04:44 | 20.55580 | 39.78522 | 17129 ft | 300 kts | 311° |
| 2026-05-05 04:44 | 20.57027 | 39.76929 | 16788 ft | 298 kts | 311° |
| 2026-05-05 04:45 | 20.58452 | 39.75360 | 16460 ft | 297 kts | 311° |
| 2026-05-05 04:45 | 20.59884 | 39.73782 | 16143 ft | 295 kts | 311° |
| 2026-05-05 04:45 | 20.61311 | 39.72211 | 15826 ft | 294 kts | 311° |
| 2026-05-05 04:45 | 20.62729 | 39.70649 | 15515 ft | 293 kts | 311° |
| 2026-05-05 04:46 | 20.64145 | 39.69090 | 15204 ft | 291 kts | 311° |
| 2026-05-05 04:46 | 20.65552 | 39.67541 | 14917 ft | 290 kts | 311° |
| 2026-05-05 04:46 | 20.66950 | 39.65999 | 14616 ft | 289 kts | 311° |
| 2026-05-05 04:46 | 20.68341 | 39.64465 | 14318 ft | 287 kts | 311° |
| 2026-05-05 04:47 | 20.69730 | 39.62930 | 14031 ft | 286 kts | 311° |
| 2026-05-05 04:47 | 20.71108 | 39.61407 | 13736 ft | 285 kts | 311° |
| 2026-05-05 04:47 | 20.72469 | 39.59903 | 13552 ft | 277 kts | 311° |
| 2026-05-05 04:47 | 20.73804 | 39.58429 | 12998 ft | 276 kts | 312° |
| 2026-05-05 04:48 | 20.75138 | 39.56957 | 12562 ft | 274 kts | 311° |
| 2026-05-05 04:48 | 20.76447 | 39.55516 | 12386 ft | 267 kts | 311° |
| 2026-05-05 04:48 | 20.77823 | 39.54220 | 12114 ft | 266 kts | 323° |
| 2026-05-05 04:48 | 20.79434 | 39.53207 | 11816 ft | 265 kts | 334° |
| 2026-05-05 04:49 | 20.81165 | 39.52547 | 11503 ft | 265 kts | 345° |
| 2026-05-05 04:49 | 20.82952 | 39.52074 | 11258 ft | 264 kts | 344° |
| 2026-05-05 04:49 | 20.84723 | 39.51595 | 11023 ft | 262 kts | 344° |
| 2026-05-05 04:49 | 20.86483 | 39.51118 | 10789 ft | 260 kts | 344° |
| 2026-05-05 04:50 | 20.88203 | 39.50652 | 10567 ft | 258 kts | 344° |
| 2026-05-05 04:50 | 20.89934 | 39.50184 | 10332 ft | 255 kts | 344° |
| 2026-05-05 04:50 | 20.91646 | 39.49718 | 10100 ft | 253 kts | 344° |
| 2026-05-05 04:50 | 20.93341 | 39.49254 | 10038 ft | 252 kts | 344° |
| 2026-05-05 04:51 | 20.95038 | 39.48790 | 10055 ft | 252 kts | 344° |
| 2026-05-05 04:51 | 20.96739 | 39.48329 | 10057 ft | 252 kts | 344° |
| 2026-05-05 04:51 | 20.98438 | 39.47868 | 10058 ft | 252 kts | 344° |
| 2026-05-05 04:51 | 21.00144 | 39.47407 | 9839 ft | 255 kts | 344° |
| 2026-05-05 04:52 | 21.01860 | 39.46944 | 9467 ft | 253 kts | 345° |
| 2026-05-05 04:52 | 21.03561 | 39.46486 | 9147 ft | 251 kts | 345° |
| 2026-05-05 04:52 | 21.05238 | 39.46035 | 8826 ft | 247 kts | 345° |
| 2026-05-05 04:52 | 21.06894 | 39.45588 | 8518 ft | 244 kts | 345° |
| 2026-05-05 04:53 | 21.08528 | 39.45148 | 8215 ft | 240 kts | 345° |
| 2026-05-05 04:53 | 21.10127 | 39.44717 | 7918 ft | 236 kts | 345° |
| 2026-05-05 04:53 | 21.11718 | 39.44285 | 7624 ft | 235 kts | 345° |
| 2026-05-05 04:53 | 21.13300 | 39.43855 | 7326 ft | 233 kts | 345° |
| 2026-05-05 04:54 | 21.14868 | 39.43432 | 7028 ft | 232 kts | 346° |
| 2026-05-05 04:54 | 21.16428 | 39.43011 | 6743 ft | 230 kts | 345° |
| 2026-05-05 04:54 | 21.17976 | 39.42588 | 6447 ft | 229 kts | 346° |
| 2026-05-05 04:54 | 21.19523 | 39.42166 | 6147 ft | 228 kts | 346° |
| 2026-05-05 04:55 | 21.21062 | 39.41747 | 5846 ft | 228 kts | 344° |
| 2026-05-05 04:55 | 21.22521 | 39.41098 | 5561 ft | 227 kts | 330° |
| 2026-05-05 04:55 | 21.23777 | 39.40101 | 5255 ft | 224 kts | 317° |
| 2026-05-05 04:55 | 21.24864 | 39.38953 | 4956 ft | 220 kts | 317° |
| 2026-05-05 04:56 | 21.25954 | 39.37820 | 4663 ft | 217 kts | 317° |
| 2026-05-05 04:56 | 21.27024 | 39.36714 | 4358 ft | 214 kts | 317° |
| 2026-05-05 04:56 | 21.28089 | 39.35610 | 4070 ft | 211 kts | 319° |
| 2026-05-05 04:56 | 21.29138 | 39.34519 | 3784 ft | 208 kts | 319° |
| 2026-05-05 04:57 | 21.30177 | 39.33441 | 3502 ft | 208 kts | 319° |
| 2026-05-05 04:57 | 21.31217 | 39.32382 | 3220 ft | 205 kts | 323° |
| 2026-05-05 04:57 | 21.32403 | 39.31598 | 3062 ft | 195 kts | 338° |
| 2026-05-05 04:57 | 21.33602 | 39.31064 | 3039 ft | 181 kts | 341° |
| 2026-05-05 04:58 | 21.34790 | 39.30586 | 3062 ft | 181 kts | 342° |
| 2026-05-05 04:58 | 21.35962 | 39.30122 | 3041 ft | 178 kts | 342° |
| 2026-05-05 04:58 | 21.36998 | 39.29714 | 3030 ft | 177 kts | 342° |
| 2026-05-05 04:58 | 21.38128 | 39.29270 | 3024 ft | 166 kts | 342° |
| 2026-05-05 04:59 | 21.39224 | 39.28840 | 3020 ft | 169 kts | 342° |
| 2026-05-05 04:59 | 21.40313 | 39.28413 | 3029 ft | 168 kts | 342° |
| 2026-05-05 04:59 | 21.41402 | 39.27980 | 2981 ft | 166 kts | 342° |
| 2026-05-05 04:59 | 21.42456 | 39.27562 | 2919 ft | 155 kts | 341° |
| 2026-05-05 05:00 | 21.43463 | 39.27168 | 2953 ft | 155 kts | 342° |
| 2026-05-05 05:00 | 21.44476 | 39.26773 | 2844 ft | 155 kts | 342° |
| 2026-05-05 05:00 | 21.45152 | 39.26510 | 2738 ft | 156 kts | 342° |
| 2026-05-05 05:00 | 21.46506 | 39.25976 | 2484 ft | 151 kts | 342° |
| 2026-05-05 05:01 | 21.47491 | 39.25580 | 2273 ft | 150 kts | 342° |
| 2026-05-05 05:01 | 21.48471 | 39.25198 | 2182 ft | 150 kts | 342° |
| 2026-05-05 05:01 | 21.49123 | 39.24949 | 2193 ft | 150 kts | 342° |
| 2026-05-05 05:01 | 21.50103 | 39.24564 | 2117 ft | 150 kts | 342° |
| 2026-05-05 05:02 | 21.51061 | 39.24180 | 2037 ft | 142 kts | 342° |
| 2026-05-05 05:02 | 21.52286 | 39.23695 | 1859 ft | 139 kts | 342° |
| 2026-05-05 05:02 | 21.52893 | 39.23462 | 1865 ft | 140 kts | 341° |
| 2026-05-05 05:02 | 21.53800 | 39.23107 | 1752 ft | 138 kts | 341° |
| 2026-05-05 05:03 | 21.54707 | 39.22754 | 1652 ft | 140 kts | 341° |
| 2026-05-05 05:03 | 21.55632 | 39.22387 | 1584 ft | 143 kts | 340° |
| 2026-05-05 05:03 | 21.56570 | 39.22019 | 1601 ft | 144 kts | 341° |
| 2026-05-05 05:03 | 21.57503 | 39.21654 | 1642 ft | 143 kts | 341° |
| 2026-05-05 05:04 | 21.58419 | 39.21300 | 1638 ft | 134 kts | 340° |
| 2026-05-05 05:04 | 21.59299 | 39.20950 | 1399 ft | 135 kts | 339° |
| 2026-05-05 05:04 | 21.60176 | 39.20605 | 1179 ft | 130 kts | 340° |
| 2026-05-05 05:04 | 21.61013 | 39.20272 | 1144 ft | 130 kts | 339° |
| 2026-05-05 05:05 | 21.61860 | 39.19939 | 1025 ft | 129 kts | 339° |
| 2026-05-05 05:05 | 21.62708 | 39.19603 | 911 ft | 131 kts | 339° |
| 2026-05-05 05:05 | 21.63576 | 39.19259 | 740 ft | 135 kts | 339° |
| 2026-05-05 05:05 | 21.64444 | 39.18913 | 579 ft | 132 kts | 339° |
| 2026-05-05 05:06 | 21.65300 | 39.18579 | 387 ft | 130 kts | 339° |
| 2026-05-05 05:06 | 21.66154 | 39.18243 | 217 ft | 132 kts | 339° |
| 2026-05-05 05:06 | 21.67015 | 39.17903 | 80 ft | 130 kts | 340° |
| 2026-05-05 05:06 | 21.67747 | 39.17615 | 53 ft | 76 kts | 340° |
| 2026-05-05 05:07 | 21.67990 | 39.17498 | 53 ft | 21 kts | 285° |
| 2026-05-05 05:07 | 21.68051 | 39.17420 | 51 ft | 15 kts | 312° |
| 2026-05-05 05:07 | 21.68123 | 39.17333 | 50 ft | 16 kts | 311° |
| 2026-05-05 05:07 | 21.68160 | 39.17240 | 49 ft | 10 kts | 223° |
| 2026-05-05 05:08 | 21.68106 | 39.17240 | 48 ft | 6 kts | 161° |
| 2026-05-05 05:08 | 21.68072 | 39.17253 | 50 ft | 4 kts | 161° |
| 2026-05-05 05:08 | 21.68024 | 39.17270 | 51 ft | 15 kts | 171° |
| 2026-05-05 05:08 | 21.67984 | 39.17216 | 49 ft | 9 kts | 246° |
| 2026-05-05 05:09 | 21.67963 | 39.17155 | 49 ft | 9 kts | 249° |
| 2026-05-05 05:09 | 21.67939 | 39.17090 | 48 ft | 10 kts | 249° |
| 2026-05-05 05:09 | 21.67897 | 39.17053 | 47 ft | 8 kts | 176° |
| 2026-05-05 05:09 | 21.67853 | 39.17063 | 47 ft | 6 kts | 154° |
| 2026-05-05 05:10 | 21.67828 | 39.17123 | 49 ft | 10 kts | 85° |
| 2026-05-05 05:10 | 21.67847 | 39.17182 | 49 ft | 7 kts | 67° |
| 2026-05-05 05:10 | 21.67851 | 39.17223 | 51 ft | 6 kts | 114° |
| 2026-05-05 05:10 | 21.67814 | 39.17255 | 52 ft | 8 kts | 153° |
| 2026-05-05 05:11 | 21.67751 | 39.17283 | 51 ft | 11 kts | 159° |
| 2026-05-05 05:11 | 21.67666 | 39.17317 | 53 ft | 15 kts | 159° |
| 2026-05-05 05:11 | 21.67570 | 39.17356 | 51 ft | 14 kts | 159° |
| 2026-05-05 05:11 | 21.67479 | 39.17392 | 51 ft | 13 kts | 160° |
| 2026-05-05 05:12 | 21.67396 | 39.17424 | 51 ft | 12 kts | 160° |
| 2026-05-05 05:12 | 21.67318 | 39.17455 | 53 ft | 12 kts | 160° |
| 2026-05-05 05:12 | 21.67235 | 39.17486 | 52 ft | 13 kts | 160° |
| 2026-05-05 05:12 | 21.67203 | 39.17467 | 51 ft | 5 kts | 258° |
| 2026-05-05 05:13 | 21.67166 | 39.17397 | 49 ft | 12 kts | 228° |
| 2026-05-05 05:13 | 21.67104 | 39.17329 | 47 ft | 13 kts | 216° |
| 2026-05-05 05:13 | 21.67034 | 39.17272 | 44 ft | 13 kts | 211° |
| 2026-05-05 05:13 | 21.67002 | 39.17264 | 43 ft | 1 kts | 254° |
| 2026-05-05 05:14 | 21.67006 | 39.17231 | 42 ft | 10 kts | 271° |
| 2026-05-05 05:14 | 21.67009 | 39.17164 | 39 ft | 4 kts | 275° |
| 2026-05-05 05:14 | 21.67010 | 39.17164 | 40 ft | 0 kts | 275° |